sensor_id;sensor_type;location;lat;lon;timestamp;P1;durP1;ratioP1;P2;durP2;ratioP2
65896;SDS011;52677;50.898;10.854;2022-09-29T00:01:57;8.20;;;5.00;;
65896;SDS011;52677;50.898;10.854;2022-09-29T00:03:58;7.82;;;4.70;;
65896;SDS011;52677;50.898;10.854;2022-09-29T00:05:58;6.78;;;4.80;;
65896;SDS011;52677;50.898;10.854;2022-09-29T00:07:58;8.73;;;4.30;;
65896;SDS011;52677;50.898;10.854;2022-09-29T00:09:59;7.60;;;4.30;;
65896;SDS011;52677;50.898;10.854;2022-09-29T00:11:59;6.65;;;4.10;;
65896;SDS011;52677;50.898;10.854;2022-09-29T00:14:00;6.53;;;4.53;;
65896;SDS011;52677;50.898;10.854;2022-09-29T00:16:01;6.35;;;4.10;;
65896;SDS011;52677;50.898;10.854;2022-09-29T00:18:02;8.25;;;4.80;;
65896;SDS011;52677;50.898;10.854;2022-09-29T00:20:03;8.68;;;5.07;;
65896;SDS011;52677;50.898;10.854;2022-09-29T00:22:04;6.68;;;4.78;;
65896;SDS011;52677;50.898;10.854;2022-09-29T00:24:04;9.85;;;5.20;;
65896;SDS011;52677;50.898;10.854;2022-09-29T00:26:10;6.38;;;4.30;;
65896;SDS011;52677;50.898;10.854;2022-09-29T00:28:12;6.63;;;4.45;;
65896;SDS011;52677;50.898;10.854;2022-09-29T00:30:12;7.50;;;4.40;;
65896;SDS011;52677;50.898;10.854;2022-09-29T00:32:13;8.55;;;5.53;;
65896;SDS011;52677;50.898;10.854;2022-09-29T00:34:14;7.95;;;4.90;;
65896;SDS011;52677;50.898;10.854;2022-09-29T00:36:15;7.65;;;5.25;;
65896;SDS011;52677;50.898;10.854;2022-09-29T00:38:17;6.80;;;4.32;;
65896;SDS011;52677;50.898;10.854;2022-09-29T00:40:18;7.78;;;5.05;;
65896;SDS011;52677;50.898;10.854;2022-09-29T00:42:18;7.93;;;4.85;;
65896;SDS011;52677;50.898;10.854;2022-09-29T00:46:25;6.93;;;4.88;;
65896;SDS011;52677;50.898;10.854;2022-09-29T00:48:29;8.10;;;5.10;;
65896;SDS011;52677;50.898;10.854;2022-09-29T00:50:36;7.25;;;5.03;;
65896;SDS011;52677;50.898;10.854;2022-09-29T00:53:15;9.32;;;5.30;;
65896;SDS011;52677;50.898;10.854;2022-09-29T00:55:20;7.75;;;5.10;;
65896;SDS011;52677;50.898;10.854;2022-09-29T00:57:26;7.60;;;4.53;;
65896;SDS011;52677;50.898;10.854;2022-09-29T00:59:36;10.57;;;5.57;;
65896;SDS011;52677;50.898;10.854;2022-09-29T01:01:41;8.45;;;5.43;;
65896;SDS011;52677;50.898;10.854;2022-09-29T01:03:42;7.53;;;5.03;;
65896;SDS011;52677;50.898;10.854;2022-09-29T01:05:46;7.93;;;5.00;;
65896;SDS011;52677;50.898;10.854;2022-09-29T01:07:50;8.13;;;5.03;;
65896;SDS011;52677;50.898;10.854;2022-09-29T01:09:51;7.40;;;4.90;;
65896;SDS011;52677;50.898;10.854;2022-09-29T01:11:55;9.60;;;5.10;;
65896;SDS011;52677;50.898;10.854;2022-09-29T01:14:00;6.70;;;4.35;;
65896;SDS011;52677;50.898;10.854;2022-09-29T01:16:04;10.18;;;4.82;;
65896;SDS011;52677;50.898;10.854;2022-09-29T01:18:05;7.55;;;5.03;;
65896;SDS011;52677;50.898;10.854;2022-09-29T01:22:34;8.40;;;5.28;;
65896;SDS011;52677;50.898;10.854;2022-09-29T01:24:55;9.68;;;4.85;;
65896;SDS011;52677;50.898;10.854;2022-09-29T01:29:50;8.65;;;5.00;;
65896;SDS011;52677;50.898;10.854;2022-09-29T01:32:07;8.68;;;5.30;;
65896;SDS011;52677;50.898;10.854;2022-09-29T01:36:27;8.30;;;5.55;;
65896;SDS011;52677;50.898;10.854;2022-09-29T01:41:27;7.57;;;4.97;;
65896;SDS011;52677;50.898;10.854;2022-09-29T01:43:45;8.82;;;5.55;;
65896;SDS011;52677;50.898;10.854;2022-09-29T01:45:56;9.68;;;6.07;;
65896;SDS011;52677;50.898;10.854;2022-09-29T01:48:06;7.45;;;4.93;;
65896;SDS011;52677;50.898;10.854;2022-09-29T01:50:15;9.10;;;5.22;;
65896;SDS011;52677;50.898;10.854;2022-09-29T01:52:22;8.73;;;5.40;;
65896;SDS011;52677;50.898;10.854;2022-09-29T01:57:01;9.30;;;6.00;;
65896;SDS011;52677;50.898;10.854;2022-09-29T01:59:27;9.25;;;5.32;;
65896;SDS011;52677;50.898;10.854;2022-09-29T02:01:35;9.52;;;5.95;;
65896;SDS011;52677;50.898;10.854;2022-09-29T02:03:40;10.13;;;6.53;;
65896;SDS011;52677;50.898;10.854;2022-09-29T02:05:51;9.65;;;5.78;;
65896;SDS011;52677;50.898;10.854;2022-09-29T02:07:55;10.40;;;5.47;;
65896;SDS011;52677;50.898;10.854;2022-09-29T02:10:02;8.27;;;5.50;;
65896;SDS011;52677;50.898;10.854;2022-09-29T02:12:09;10.98;;;6.70;;
65896;SDS011;52677;50.898;10.854;2022-09-29T02:14:21;8.93;;;5.30;;
65896;SDS011;52677;50.898;10.854;2022-09-29T02:16:25;9.98;;;6.07;;
65896;SDS011;52677;50.898;10.854;2022-09-29T02:18:30;9.07;;;5.70;;
65896;SDS011;52677;50.898;10.854;2022-09-29T02:20:36;8.52;;;5.50;;
65896;SDS011;52677;50.898;10.854;2022-09-29T02:22:37;8.60;;;5.07;;
65896;SDS011;52677;50.898;10.854;2022-09-29T02:24:39;8.35;;;5.05;;
65896;SDS011;52677;50.898;10.854;2022-09-29T02:26:40;9.15;;;5.90;;
65896;SDS011;52677;50.898;10.854;2022-09-29T02:28:41;10.48;;;5.80;;
65896;SDS011;52677;50.898;10.854;2022-09-29T02:32:47;8.48;;;5.68;;
65896;SDS011;52677;50.898;10.854;2022-09-29T02:34:47;8.10;;;5.32;;
65896;SDS011;52677;50.898;10.854;2022-09-29T02:36:59;10.85;;;6.20;;
65896;SDS011;52677;50.898;10.854;2022-09-29T02:42:01;11.35;;;5.43;;
65896;SDS011;52677;50.898;10.854;2022-09-29T02:50:59;9.90;;;5.63;;
65896;SDS011;52677;50.898;10.854;2022-09-29T02:53:06;9.13;;;5.53;;
65896;SDS011;52677;50.898;10.854;2022-09-29T02:57:42;8.85;;;5.75;;
65896;SDS011;52677;50.898;10.854;2022-09-29T03:00:03;9.52;;;5.53;;
65896;SDS011;52677;50.898;10.854;2022-09-29T03:02:08;9.80;;;5.85;;
65896;SDS011;52677;50.898;10.854;2022-09-29T03:04:08;9.00;;;5.38;;
65896;SDS011;52677;50.898;10.854;2022-09-29T03:06:09;8.77;;;5.20;;
65896;SDS011;52677;50.898;10.854;2022-09-29T03:08:10;7.82;;;5.28;;
65896;SDS011;52677;50.898;10.854;2022-09-29T03:10:11;9.95;;;5.35;;
65896;SDS011;52677;50.898;10.854;2022-09-29T03:12:13;10.75;;;5.95;;
65896;SDS011;52677;50.898;10.854;2022-09-29T03:14:13;9.07;;;5.35;;
65896;SDS011;52677;50.898;10.854;2022-09-29T03:16:13;7.43;;;4.65;;
65896;SDS011;52677;50.898;10.854;2022-09-29T03:18:14;10.90;;;5.43;;
65896;SDS011;52677;50.898;10.854;2022-09-29T03:20:14;6.47;;;4.45;;
65896;SDS011;52677;50.898;10.854;2022-09-29T03:22:15;5.95;;;4.45;;
65896;SDS011;52677;50.898;10.854;2022-09-29T03:24:15;6.70;;;4.65;;
65896;SDS011;52677;50.898;10.854;2022-09-29T03:26:15;7.90;;;5.22;;
65896;SDS011;52677;50.898;10.854;2022-09-29T03:28:16;6.88;;;4.80;;
65896;SDS011;52677;50.898;10.854;2022-09-29T03:30:16;8.60;;;4.22;;
65896;SDS011;52677;50.898;10.854;2022-09-29T03:32:17;6.90;;;4.40;;
65896;SDS011;52677;50.898;10.854;2022-09-29T03:34:18;10.18;;;4.45;;
65896;SDS011;52677;50.898;10.854;2022-09-29T03:36:18;7.43;;;4.50;;
65896;SDS011;52677;50.898;10.854;2022-09-29T03:38:18;7.88;;;4.78;;
65896;SDS011;52677;50.898;10.854;2022-09-29T03:40:19;6.18;;;4.40;;
65896;SDS011;52677;50.898;10.854;2022-09-29T03:42:19;6.68;;;4.55;;
65896;SDS011;52677;50.898;10.854;2022-09-29T03:44:23;6.38;;;4.53;;
65896;SDS011;52677;50.898;10.854;2022-09-29T03:46:23;6.68;;;4.47;;
65896;SDS011;52677;50.898;10.854;2022-09-29T03:48:23;7.65;;;4.43;;
65896;SDS011;52677;50.898;10.854;2022-09-29T03:50:25;7.33;;;4.57;;
65896;SDS011;52677;50.898;10.854;2022-09-29T03:52:25;6.20;;;3.80;;
65896;SDS011;52677;50.898;10.854;2022-09-29T03:54:26;8.98;;;5.30;;
65896;SDS011;52677;50.898;10.854;2022-09-29T03:56:27;7.03;;;4.50;;
65896;SDS011;52677;50.898;10.854;2022-09-29T03:58:27;7.05;;;3.70;;
65896;SDS011;52677;50.898;10.854;2022-09-29T04:00:27;7.40;;;4.70;;
65896;SDS011;52677;50.898;10.854;2022-09-29T04:02:28;6.60;;;4.22;;
65896;SDS011;52677;50.898;10.854;2022-09-29T04:04:28;6.50;;;4.13;;
65896;SDS011;52677;50.898;10.854;2022-09-29T04:06:29;6.72;;;4.22;;
65896;SDS011;52677;50.898;10.854;2022-09-29T04:08:29;5.05;;;3.88;;
65896;SDS011;52677;50.898;10.854;2022-09-29T04:10:29;5.45;;;3.85;;
65896;SDS011;52677;50.898;10.854;2022-09-29T04:12:32;6.45;;;3.72;;
65896;SDS011;52677;50.898;10.854;2022-09-29T04:14:33;6.68;;;4.45;;
65896;SDS011;52677;50.898;10.854;2022-09-29T04:16:33;5.65;;;3.90;;
65896;SDS011;52677;50.898;10.854;2022-09-29T04:18:33;7.40;;;4.35;;
65896;SDS011;52677;50.898;10.854;2022-09-29T04:20:36;5.93;;;4.47;;
65896;SDS011;52677;50.898;10.854;2022-09-29T04:22:37;8.60;;;4.43;;
65896;SDS011;52677;50.898;10.854;2022-09-29T04:24:37;9.52;;;4.78;;
65896;SDS011;52677;50.898;10.854;2022-09-29T04:26:37;6.15;;;4.47;;
65896;SDS011;52677;50.898;10.854;2022-09-29T04:28:38;6.78;;;4.65;;
65896;SDS011;52677;50.898;10.854;2022-09-29T04:30:39;10.95;;;7.20;;
65896;SDS011;52677;50.898;10.854;2022-09-29T04:32:39;12.05;;;7.13;;
65896;SDS011;52677;50.898;10.854;2022-09-29T04:34:39;12.90;;;7.40;;
65896;SDS011;52677;50.898;10.854;2022-09-29T04:36:40;9.40;;;6.18;;
65896;SDS011;52677;50.898;10.854;2022-09-29T04:38:40;10.38;;;6.38;;
65896;SDS011;52677;50.898;10.854;2022-09-29T04:40:40;10.70;;;6.72;;
65896;SDS011;52677;50.898;10.854;2022-09-29T04:42:41;10.00;;;6.85;;
65896;SDS011;52677;50.898;10.854;2022-09-29T04:44:41;9.38;;;6.10;;
65896;SDS011;52677;50.898;10.854;2022-09-29T04:46:41;10.27;;;6.15;;
65896;SDS011;52677;50.898;10.854;2022-09-29T04:48:41;7.05;;;5.28;;
65896;SDS011;52677;50.898;10.854;2022-09-29T04:50:42;9.18;;;5.20;;
65896;SDS011;52677;50.898;10.854;2022-09-29T04:52:43;11.35;;;5.78;;
65896;SDS011;52677;50.898;10.854;2022-09-29T04:54:43;8.68;;;4.85;;
65896;SDS011;52677;50.898;10.854;2022-09-29T04:56:46;7.40;;;4.90;;
65896;SDS011;52677;50.898;10.854;2022-09-29T04:58:47;7.05;;;5.13;;
65896;SDS011;52677;50.898;10.854;2022-09-29T05:00:47;8.32;;;5.47;;
65896;SDS011;52677;50.898;10.854;2022-09-29T05:02:48;7.38;;;5.20;;
65896;SDS011;52677;50.898;10.854;2022-09-29T05:04:48;9.52;;;5.35;;
65896;SDS011;52677;50.898;10.854;2022-09-29T05:06:48;7.88;;;5.18;;
65896;SDS011;52677;50.898;10.854;2022-09-29T05:08:49;9.23;;;5.53;;
65896;SDS011;52677;50.898;10.854;2022-09-29T05:10:49;8.18;;;4.90;;
65896;SDS011;52677;50.898;10.854;2022-09-29T05:12:50;8.65;;;5.20;;
65896;SDS011;52677;50.898;10.854;2022-09-29T05:14:51;5.72;;;4.68;;
65896;SDS011;52677;50.898;10.854;2022-09-29T05:16:52;9.90;;;4.97;;
65896;SDS011;52677;50.898;10.854;2022-09-29T05:18:54;7.47;;;5.00;;
65896;SDS011;52677;50.898;10.854;2022-09-29T05:20:55;5.90;;;4.50;;
65896;SDS011;52677;50.898;10.854;2022-09-29T05:22:56;7.53;;;4.20;;
65896;SDS011;52677;50.898;10.854;2022-09-29T05:24:57;7.95;;;5.10;;
65896;SDS011;52677;50.898;10.854;2022-09-29T05:26:57;7.07;;;4.97;;
65896;SDS011;52677;50.898;10.854;2022-09-29T05:28:58;6.82;;;4.78;;
65896;SDS011;52677;50.898;10.854;2022-09-29T05:31:01;6.40;;;4.30;;
65896;SDS011;52677;50.898;10.854;2022-09-29T05:33:06;7.15;;;4.57;;
65896;SDS011;52677;50.898;10.854;2022-09-29T05:35:06;6.38;;;4.45;;
65896;SDS011;52677;50.898;10.854;2022-09-29T05:37:07;5.65;;;4.00;;
65896;SDS011;52677;50.898;10.854;2022-09-29T05:39:08;5.72;;;4.43;;
65896;SDS011;52677;50.898;10.854;2022-09-29T05:41:10;7.47;;;4.88;;
65896;SDS011;52677;50.898;10.854;2022-09-29T05:43:11;6.40;;;4.50;;
65896;SDS011;52677;50.898;10.854;2022-09-29T05:45:12;5.75;;;3.78;;
65896;SDS011;52677;50.898;10.854;2022-09-29T05:47:12;6.07;;;4.63;;
65896;SDS011;52677;50.898;10.854;2022-09-29T05:49:12;6.25;;;4.45;;
65896;SDS011;52677;50.898;10.854;2022-09-29T05:51:13;8.35;;;4.75;;
65896;SDS011;52677;50.898;10.854;2022-09-29T05:53:15;7.18;;;4.40;;
65896;SDS011;52677;50.898;10.854;2022-09-29T05:55:16;7.82;;;5.43;;
65896;SDS011;52677;50.898;10.854;2022-09-29T05:57:17;10.25;;;4.93;;
65896;SDS011;52677;50.898;10.854;2022-09-29T05:59:17;5.95;;;4.30;;
65896;SDS011;52677;50.898;10.854;2022-09-29T06:01:19;6.82;;;4.78;;
65896;SDS011;52677;50.898;10.854;2022-09-29T06:03:21;6.90;;;4.68;;
65896;SDS011;52677;50.898;10.854;2022-09-29T06:05:21;5.47;;;4.35;;
65896;SDS011;52677;50.898;10.854;2022-09-29T06:07:21;8.88;;;4.13;;
65896;SDS011;52677;50.898;10.854;2022-09-29T06:09:22;6.88;;;3.97;;
65896;SDS011;52677;50.898;10.854;2022-09-29T06:11:23;6.30;;;4.43;;
65896;SDS011;52677;50.898;10.854;2022-09-29T06:13:26;4.90;;;3.88;;
65896;SDS011;52677;50.898;10.854;2022-09-29T06:15:26;7.20;;;4.53;;
65896;SDS011;52677;50.898;10.854;2022-09-29T06:17:27;12.20;;;6.80;;
65896;SDS011;52677;50.898;10.854;2022-09-29T06:19:27;7.25;;;4.70;;
65896;SDS011;52677;50.898;10.854;2022-09-29T06:21:27;7.35;;;5.45;;
65896;SDS011;52677;50.898;10.854;2022-09-29T06:23:28;7.18;;;4.75;;
65896;SDS011;52677;50.898;10.854;2022-09-29T06:25:29;5.97;;;3.83;;
65896;SDS011;52677;50.898;10.854;2022-09-29T06:27:29;7.05;;;4.35;;
65896;SDS011;52677;50.898;10.854;2022-09-29T06:29:29;12.65;;;5.68;;
65896;SDS011;52677;50.898;10.854;2022-09-29T06:31:30;8.82;;;5.70;;
65896;SDS011;52677;50.898;10.854;2022-09-29T06:33:32;8.55;;;5.82;;
65896;SDS011;52677;50.898;10.854;2022-09-29T06:35:33;10.27;;;5.70;;
65896;SDS011;52677;50.898;10.854;2022-09-29T06:37:52;8.20;;;5.47;;
65896;SDS011;52677;50.898;10.854;2022-09-29T06:39:55;6.38;;;4.95;;
65896;SDS011;52677;50.898;10.854;2022-09-29T06:41:55;7.95;;;5.45;;
65896;SDS011;52677;50.898;10.854;2022-09-29T06:43:56;7.50;;;5.20;;
65896;SDS011;52677;50.898;10.854;2022-09-29T06:45:56;8.25;;;5.60;;
65896;SDS011;52677;50.898;10.854;2022-09-29T06:47:57;8.95;;;5.43;;
65896;SDS011;52677;50.898;10.854;2022-09-29T06:49:59;6.82;;;4.70;;
65896;SDS011;52677;50.898;10.854;2022-09-29T06:52:00;10.23;;;4.35;;
65896;SDS011;52677;50.898;10.854;2022-09-29T06:54:01;7.75;;;4.72;;
65896;SDS011;52677;50.898;10.854;2022-09-29T06:56:02;7.30;;;4.53;;
65896;SDS011;52677;50.898;10.854;2022-09-29T06:58:02;5.72;;;4.50;;
65896;SDS011;52677;50.898;10.854;2022-09-29T07:00:03;8.10;;;5.80;;
65896;SDS011;52677;50.898;10.854;2022-09-29T07:02:05;6.75;;;5.13;;
65896;SDS011;52677;50.898;10.854;2022-09-29T07:04:06;5.97;;;4.72;;
65896;SDS011;52677;50.898;10.854;2022-09-29T07:06:07;7.65;;;5.70;;
65896;SDS011;52677;50.898;10.854;2022-09-29T07:08:10;7.15;;;5.18;;
65896;SDS011;52677;50.898;10.854;2022-09-29T07:10:10;7.32;;;5.32;;
65896;SDS011;52677;50.898;10.854;2022-09-29T07:12:10;10.23;;;6.90;;
65896;SDS011;52677;50.898;10.854;2022-09-29T07:14:12;10.00;;;6.45;;
65896;SDS011;52677;50.898;10.854;2022-09-29T07:16:13;9.23;;;6.03;;
65896;SDS011;52677;50.898;10.854;2022-09-29T07:18:13;9.20;;;7.13;;
65896;SDS011;52677;50.898;10.854;2022-09-29T07:20:13;11.05;;;6.10;;
65896;SDS011;52677;50.898;10.854;2022-09-29T07:22:14;7.78;;;5.45;;
65896;SDS011;52677;50.898;10.854;2022-09-29T07:24:14;6.07;;;4.88;;
65896;SDS011;52677;50.898;10.854;2022-09-29T07:26:15;7.35;;;5.30;;
65896;SDS011;52677;50.898;10.854;2022-09-29T07:28:16;5.22;;;4.28;;
65896;SDS011;52677;50.898;10.854;2022-09-29T07:30:17;7.82;;;4.95;;
65896;SDS011;52677;50.898;10.854;2022-09-29T07:32:18;7.93;;;5.55;;
65896;SDS011;52677;50.898;10.854;2022-09-29T07:34:19;8.30;;;6.20;;
65896;SDS011;52677;50.898;10.854;2022-09-29T07:36:20;10.02;;;6.78;;
65896;SDS011;52677;50.898;10.854;2022-09-29T07:38:20;6.88;;;5.25;;
65896;SDS011;52677;50.898;10.854;2022-09-29T07:40:21;7.07;;;5.30;;
65896;SDS011;52677;50.898;10.854;2022-09-29T07:42:22;7.53;;;5.18;;
65896;SDS011;52677;50.898;10.854;2022-09-29T07:44:23;7.40;;;5.60;;
65896;SDS011;52677;50.898;10.854;2022-09-29T07:46:23;8.27;;;5.25;;
65896;SDS011;52677;50.898;10.854;2022-09-29T07:48:23;8.95;;;5.43;;
65896;SDS011;52677;50.898;10.854;2022-09-29T07:50:24;6.82;;;4.95;;
65896;SDS011;52677;50.898;10.854;2022-09-29T07:52:25;9.07;;;6.47;;
65896;SDS011;52677;50.898;10.854;2022-09-29T07:54:25;10.75;;;5.28;;
65896;SDS011;52677;50.898;10.854;2022-09-29T07:56:26;11.68;;;6.82;;
65896;SDS011;52677;50.898;10.854;2022-09-29T07:58:26;13.30;;;6.85;;
65896;SDS011;52677;50.898;10.854;2022-09-29T08:00:27;9.82;;;6.63;;
65896;SDS011;52677;50.898;10.854;2022-09-29T08:02:30;11.88;;;6.32;;
65896;SDS011;52677;50.898;10.854;2022-09-29T08:04:31;11.98;;;5.82;;
65896;SDS011;52677;50.898;10.854;2022-09-29T08:06:31;10.05;;;6.38;;
65896;SDS011;52677;50.898;10.854;2022-09-29T08:08:33;8.35;;;5.68;;
65896;SDS011;52677;50.898;10.854;2022-09-29T08:10:37;9.05;;;6.13;;
65896;SDS011;52677;50.898;10.854;2022-09-29T08:12:38;10.30;;;6.15;;
65896;SDS011;52677;50.898;10.854;2022-09-29T08:14:38;13.05;;;5.85;;
65896;SDS011;52677;50.898;10.854;2022-09-29T08:16:38;8.43;;;5.18;;
65896;SDS011;52677;50.898;10.854;2022-09-29T08:18:39;9.30;;;5.30;;
65896;SDS011;52677;50.898;10.854;2022-09-29T08:20:40;6.32;;;4.90;;
65896;SDS011;52677;50.898;10.854;2022-09-29T08:22:40;7.30;;;5.07;;
65896;SDS011;52677;50.898;10.854;2022-09-29T08:24:41;8.77;;;5.07;;
65896;SDS011;52677;50.898;10.854;2022-09-29T08:26:41;7.20;;;5.63;;
65896;SDS011;52677;50.898;10.854;2022-09-29T08:28:42;8.00;;;5.80;;
65896;SDS011;52677;50.898;10.854;2022-09-29T08:30:44;7.57;;;5.53;;
65896;SDS011;52677;50.898;10.854;2022-09-29T08:32:49;9.63;;;5.63;;
65896;SDS011;52677;50.898;10.854;2022-09-29T08:34:50;9.80;;;5.97;;
65896;SDS011;52677;50.898;10.854;2022-09-29T08:36:51;10.70;;;5.18;;
65896;SDS011;52677;50.898;10.854;2022-09-29T08:38:52;10.82;;;6.30;;
65896;SDS011;52677;50.898;10.854;2022-09-29T08:40:55;8.43;;;5.35;;
65896;SDS011;52677;50.898;10.854;2022-09-29T08:45:39;14.57;;;7.20;;
65896;SDS011;52677;50.898;10.854;2022-09-29T08:47:44;9.25;;;5.60;;
65896;SDS011;52677;50.898;10.854;2022-09-29T08:49:52;12.70;;;5.82;;
65896;SDS011;52677;50.898;10.854;2022-09-29T08:51:56;11.18;;;6.55;;
65896;SDS011;52677;50.898;10.854;2022-09-29T08:54:06;9.88;;;5.65;;
65896;SDS011;52677;50.898;10.854;2022-09-29T08:56:23;7.10;;;5.07;;
65896;SDS011;52677;50.898;10.854;2022-09-29T08:58:25;7.88;;;5.53;;
65896;SDS011;52677;50.898;10.854;2022-09-29T09:00:33;7.28;;;5.43;;
65896;SDS011;52677;50.898;10.854;2022-09-29T09:07:29;7.53;;;5.60;;
65896;SDS011;52677;50.898;10.854;2022-09-29T09:12:08;10.48;;;6.70;;
65896;SDS011;52677;50.898;10.854;2022-09-29T09:21:42;7.00;;;5.35;;
65896;SDS011;52677;50.898;10.854;2022-09-29T09:23:49;6.65;;;4.93;;
65896;SDS011;52677;50.898;10.854;2022-09-29T09:25:54;7.05;;;4.90;;
65896;SDS011;52677;50.898;10.854;2022-09-29T09:28:03;10.20;;;5.82;;
65896;SDS011;52677;50.898;10.854;2022-09-29T09:30:18;6.28;;;5.22;;
65896;SDS011;52677;50.898;10.854;2022-09-29T09:32:21;7.53;;;5.80;;
65896;SDS011;52677;50.898;10.854;2022-09-29T09:34:37;7.38;;;5.55;;
65896;SDS011;52677;50.898;10.854;2022-09-29T09:38:58;7.45;;;5.82;;
65896;SDS011;52677;50.898;10.854;2022-09-29T09:41:14;7.03;;;4.63;;
65896;SDS011;52677;50.898;10.854;2022-09-29T09:43:22;8.13;;;5.35;;
65896;SDS011;52677;50.898;10.854;2022-09-29T09:45:30;6.97;;;4.90;;
65896;SDS011;52677;50.898;10.854;2022-09-29T09:47:37;7.93;;;5.43;;
65896;SDS011;52677;50.898;10.854;2022-09-29T09:49:43;7.93;;;5.53;;
65896;SDS011;52677;50.898;10.854;2022-09-29T09:53:55;8.35;;;5.53;;
65896;SDS011;52677;50.898;10.854;2022-09-29T09:56:11;7.30;;;5.72;;
65896;SDS011;52677;50.898;10.854;2022-09-29T10:00:29;6.43;;;5.75;;
65896;SDS011;52677;50.898;10.854;2022-09-29T10:02:53;8.90;;;6.80;;
65896;SDS011;52677;50.898;10.854;2022-09-29T10:04:56;8.23;;;6.00;;
65896;SDS011;52677;50.898;10.854;2022-09-29T10:06:56;8.10;;;5.57;;
65896;SDS011;52677;50.898;10.854;2022-09-29T10:08:57;7.70;;;5.45;;
65896;SDS011;52677;50.898;10.854;2022-09-29T10:10:57;10.27;;;5.70;;
65896;SDS011;52677;50.898;10.854;2022-09-29T10:13:02;8.98;;;5.80;;
65896;SDS011;52677;50.898;10.854;2022-09-29T10:15:11;7.13;;;5.57;;
65896;SDS011;52677;50.898;10.854;2022-09-29T10:17:20;7.78;;;5.05;;
65896;SDS011;52677;50.898;10.854;2022-09-29T10:19:51;7.45;;;5.15;;
65896;SDS011;52677;50.898;10.854;2022-09-29T10:21:59;8.13;;;5.45;;
65896;SDS011;52677;50.898;10.854;2022-09-29T10:24:22;7.00;;;5.72;;
65896;SDS011;52677;50.898;10.854;2022-09-29T10:26:35;9.70;;;5.28;;
65896;SDS011;52677;50.898;10.854;2022-09-29T10:28:43;7.40;;;5.32;;
65896;SDS011;52677;50.898;10.854;2022-09-29T10:30:48;6.25;;;4.78;;
65896;SDS011;52677;50.898;10.854;2022-09-29T10:32:50;7.55;;;5.05;;
65896;SDS011;52677;50.898;10.854;2022-09-29T10:35:14;7.85;;;5.40;;
65896;SDS011;52677;50.898;10.854;2022-09-29T10:37:22;7.63;;;4.70;;
65896;SDS011;52677;50.898;10.854;2022-09-29T10:41:48;5.37;;;4.17;;
65896;SDS011;52677;50.898;10.854;2022-09-29T10:43:53;8.02;;;4.40;;
65896;SDS011;52677;50.898;10.854;2022-09-29T10:45:53;5.45;;;4.28;;
65896;SDS011;52677;50.898;10.854;2022-09-29T10:52:31;5.47;;;4.45;;
65896;SDS011;52677;50.898;10.854;2022-09-29T10:54:33;5.25;;;4.03;;
65896;SDS011;52677;50.898;10.854;2022-09-29T10:56:36;4.28;;;3.53;;
65896;SDS011;52677;50.898;10.854;2022-09-29T10:59:00;7.93;;;5.45;;
65896;SDS011;52677;50.898;10.854;2022-09-29T11:01:07;6.88;;;4.10;;
65896;SDS011;52677;50.898;10.854;2022-09-29T11:03:20;7.13;;;4.72;;
65896;SDS011;52677;50.898;10.854;2022-09-29T11:05:23;7.28;;;5.25;;
65896;SDS011;52677;50.898;10.854;2022-09-29T11:07:23;6.70;;;4.85;;
65896;SDS011;52677;50.898;10.854;2022-09-29T11:09:28;5.63;;;4.00;;
65896;SDS011;52677;50.898;10.854;2022-09-29T11:11:31;6.57;;;4.60;;
65896;SDS011;52677;50.898;10.854;2022-09-29T11:13:37;4.55;;;3.70;;
65896;SDS011;52677;50.898;10.854;2022-09-29T11:15:38;4.55;;;3.75;;
65896;SDS011;52677;50.898;10.854;2022-09-29T11:17:40;8.43;;;5.00;;
65896;SDS011;52677;50.898;10.854;2022-09-29T11:19:49;12.10;;;4.82;;
65896;SDS011;52677;50.898;10.854;2022-09-29T11:26:46;4.72;;;3.33;;
65896;SDS011;52677;50.898;10.854;2022-09-29T11:33:43;6.70;;;3.38;;
65896;SDS011;52677;50.898;10.854;2022-09-29T11:36:09;4.15;;;3.20;;
65896;SDS011;52677;50.898;10.854;2022-09-29T11:40:49;5.05;;;3.65;;
65896;SDS011;52677;50.898;10.854;2022-09-29T11:45:26;6.00;;;3.85;;
65896;SDS011;52677;50.898;10.854;2022-09-29T12:01:48;4.13;;;2.80;;
65896;SDS011;52677;50.898;10.854;2022-09-29T12:04:03;4.20;;;2.67;;
65896;SDS011;52677;50.898;10.854;2022-09-29T12:06:21;4.88;;;2.60;;
65896;SDS011;52677;50.898;10.854;2022-09-29T12:10:55;3.72;;;2.42;;
65896;SDS011;52677;50.898;10.854;2022-09-29T12:13:10;4.07;;;3.40;;
65896;SDS011;52677;50.898;10.854;2022-09-29T12:17:26;5.10;;;3.40;;
65896;SDS011;52677;50.898;10.854;2022-09-29T12:19:31;4.72;;;3.03;;
65896;SDS011;52677;50.898;10.854;2022-09-29T12:21:38;6.18;;;2.92;;
65896;SDS011;52677;50.898;10.854;2022-09-29T12:23:42;4.40;;;2.88;;
65896;SDS011;52677;50.898;10.854;2022-09-29T12:25:55;3.80;;;2.78;;
65896;SDS011;52677;50.898;10.854;2022-09-29T12:28:04;3.58;;;2.67;;
65896;SDS011;52677;50.898;10.854;2022-09-29T12:32:20;5.03;;;2.67;;
65896;SDS011;52677;50.898;10.854;2022-09-29T12:36:44;4.47;;;2.67;;
65896;SDS011;52677;50.898;10.854;2022-09-29T12:38:52;4.63;;;2.63;;
65896;SDS011;52677;50.898;10.854;2022-09-29T12:43:30;4.95;;;3.20;;
65896;SDS011;52677;50.898;10.854;2022-09-29T12:50:37;7.40;;;3.42;;
65896;SDS011;52677;50.898;10.854;2022-09-29T12:53:24;5.88;;;3.80;;
65896;SDS011;52677;50.898;10.854;2022-09-29T12:57:40;4.60;;;2.95;;
65896;SDS011;52677;50.898;10.854;2022-09-29T12:59:57;6.10;;;3.83;;
65896;SDS011;52677;50.898;10.854;2022-09-29T13:04:48;5.13;;;3.25;;
65896;SDS011;52677;50.898;10.854;2022-09-29T13:18:21;6.78;;;3.17;;
65896;SDS011;52677;50.898;10.854;2022-09-29T13:23:16;4.13;;;3.25;;
65896;SDS011;52677;50.898;10.854;2022-09-29T13:27:32;4.32;;;2.97;;
65896;SDS011;52677;50.898;10.854;2022-09-29T13:29:42;3.45;;;2.58;;
65896;SDS011;52677;50.898;10.854;2022-09-29T13:31:59;4.10;;;2.78;;
65896;SDS011;52677;50.898;10.854;2022-09-29T13:34:01;3.50;;;2.60;;
65896;SDS011;52677;50.898;10.854;2022-09-29T13:36:02;5.00;;;2.97;;
65896;SDS011;52677;50.898;10.854;2022-09-29T13:38:04;4.95;;;2.80;;
65896;SDS011;52677;50.898;10.854;2022-09-29T13:40:06;3.30;;;2.83;;
65896;SDS011;52677;50.898;10.854;2022-09-29T13:44:45;4.65;;;3.33;;
65896;SDS011;52677;50.898;10.854;2022-09-29T13:49:46;5.68;;;3.15;;
65896;SDS011;52677;50.898;10.854;2022-09-29T13:54:20;6.13;;;3.42;;
65896;SDS011;52677;50.898;10.854;2022-09-29T13:56:18;3.92;;;2.88;;
65896;SDS011;52677;50.898;10.854;2022-09-29T13:58:23;4.20;;;3.30;;
65896;SDS011;52677;50.898;10.854;2022-09-29T14:00:25;4.28;;;2.97;;
65896;SDS011;52677;50.898;10.854;2022-09-29T14:02:37;7.22;;;3.40;;
65896;SDS011;52677;50.898;10.854;2022-09-29T14:06:49;4.45;;;2.95;;
65896;SDS011;52677;50.898;10.854;2022-09-29T14:09:06;3.67;;;3.15;;
65896;SDS011;52677;50.898;10.854;2022-09-29T14:18:14;4.15;;;3.17;;
65896;SDS011;52677;50.898;10.854;2022-09-29T14:20:31;3.38;;;3.08;;
65896;SDS011;52677;50.898;10.854;2022-09-29T14:26:50;3.22;;;2.72;;
65896;SDS011;52677;50.898;10.854;2022-09-29T14:28:53;3.45;;;2.42;;
65896;SDS011;52677;50.898;10.854;2022-09-29T14:30:55;5.32;;;2.80;;
65896;SDS011;52677;50.898;10.854;2022-09-29T14:33:02;2.60;;;2.40;;
65896;SDS011;52677;50.898;10.854;2022-09-29T14:35:18;3.28;;;2.45;;
65896;SDS011;52677;50.898;10.854;2022-09-29T14:37:25;3.25;;;2.20;;
65896;SDS011;52677;50.898;10.854;2022-09-29T14:39:26;3.85;;;2.70;;
65896;SDS011;52677;50.898;10.854;2022-09-29T14:41:29;4.15;;;2.13;;
65896;SDS011;52677;50.898;10.854;2022-09-29T14:43:38;4.90;;;2.50;;
65896;SDS011;52677;50.898;10.854;2022-09-29T14:46:27;3.20;;;2.42;;